Time;durP1;ratioP1;P1;durP2;ratioP2;P2;SDS_P1;SDS_P2;PMS_P1;PMS_P2;Temp;Humidity;BMP_temperature;BMP_pressure;BME280_temperature;BME280_humidity;BME280_pressure;Samples;Min_cycle;Max_cycle;Signal;HPM_P1;HPM_P2
2024/04/01 00:02:22;;;;;;;2.83;2.50;;;25.40;61.10;;;;;;5092545;28;20187;-72
2024/04/01 00:04:49;;;;;;;3.33;2.10;;;25.30;62.00;;;;;;5071608;28;20171;-72
2024/04/01 00:07:16;;;;;;;5.20;2.20;;;25.60;62.00;;;;;;5072067;28;20229;-71
2024/04/01 00:09:44;;;;;;;2.37;2.00;;;25.70;61.30;;;;;;5074696;28;20199;-71
2024/04/01 00:12:12;;;;;;;3.47;2.07;;;25.80;58.90;;;;;;5077352;28;20186;-72
2024/04/01 00:14:39;;;;;;;3.77;2.43;;;25.80;59.70;;;;;;5073955;28;20236;-72
2024/04/01 00:17:06;;;;;;;3.63;2.30;;;25.70;59.40;;;;;;5073894;28;20204;-71
2024/04/01 00:19:34;;;;;;;5.53;2.73;;;25.80;58.90;;;;;;5075927;28;20642;-72
2024/04/01 00:22:05;;;;;;;3.57;2.33;;;25.90;58.50;;;;;;5074664;28;20191;-74
2024/04/01 00:24:32;;;;;;;3.10;2.27;;;26.00;58.10;;;;;;5073632;28;20303;-73
2024/04/01 00:27:00;;;;;;;3.47;2.17;;;26.10;58.40;;;;;;5075287;28;20179;-72
2024/04/01 00:29:27;;;;;;;3.73;2.40;;;26.20;58.30;;;;;;5074448;28;20179;-72
2024/04/01 00:31:55;;;;;;;3.40;2.23;;;26.30;58.20;;;;;;5074125;28;20545;-75
2024/04/01 00:34:22;;;;;;;4.80;2.57;;;26.00;59.00;;;;;;5074812;28;20183;-71
2024/04/01 00:36:49;;;;;;;3.03;2.20;;;26.20;59.30;;;;;;5073695;28;20211;-72
2024/04/01 00:39:17;;;;;;;2.43;1.97;;;26.30;59.30;;;;;;5077851;28;20276;-73
2024/04/01 00:41:44;;;;;;;6.33;2.67;;;26.40;58.10;;;;;;5074501;28;20681;-72
2024/04/01 00:44:11;;;;;;;3.43;2.33;;;26.60;58.20;;;;;;5094420;28;20699;-73
2024/04/01 00:46:39;;;;;;;2.70;2.50;;;26.80;57.40;;;;;;5095436;28;20176;-71
2024/04/01 00:49:06;;;;;;;4.27;2.70;;;26.80;57.70;;;;;;5072309;28;20186;-73
2024/04/01 00:51:35;;;;;;;3.80;2.30;;;26.90;56.80;;;;;;5072695;28;20176;-72
2024/04/01 00:54:02;;;;;;;4.17;2.50;;;27.10;57.00;;;;;;5073677;28;20180;-72
2024/04/01 00:56:31;;;;;;;2.70;2.37;;;27.00;56.80;;;;;;5068781;28;20207;-74
2024/04/01 00:59:03;;;;;;;2.67;2.30;;;27.10;56.80;;;;;;5073588;28;20283;-71
2024/04/01 01:01:33;;;;;;;5.00;2.47;;;27.20;55.80;;;;;;5069935;28;20179;-71
2024/04/01 01:04:04;;;;;;;3.37;2.47;;;26.90;56.40;;;;;;5080362;28;20179;-74
2024/04/01 01:06:32;;;;;;;5.23;2.23;;;27.10;56.60;;;;;;5073522;28;20187;-71
2024/04/01 01:09:00;;;;;;;2.40;2.17;;;27.10;56.20;;;;;;5063137;28;20631;-72
2024/04/01 01:11:28;;;;;;;3.67;2.30;;;27.30;55.40;;;;;;5073391;28;20183;-73
2024/04/01 01:13:55;;;;;;;2.20;2.00;;;27.50;55.40;;;;;;5075970;28;20181;-71
2024/04/01 01:16:22;;;;;;;2.50;2.30;;;27.50;55.20;;;;;;5070615;28;20215;-72
2024/04/01 01:18:53;;;;;;;5.17;2.73;;;27.50;55.00;;;;;;5080369;28;20183;-72
2024/04/01 01:21:20;;;;;;;2.90;1.90;;;27.60;55.20;;;;;;5071251;28;20178;-74
2024/04/01 01:23:48;;;;;;;5.33;2.30;;;27.80;54.00;;;;;;5076243;28;20523;-71
2024/04/01 01:26:15;;;;;;;4.87;2.50;;;27.90;53.00;;;;;;5073892;28;20233;-71
2024/04/01 01:28:42;;;;;;;3.43;2.50;;;28.10;53.10;;;;;;5079563;28;20629;-73
2024/04/01 01:31:12;;;;;;;3.33;2.23;;;28.10;52.80;;;;;;5076175;28;20664;-73
2024/04/01 01:33:39;;;;;;;3.43;2.23;;;28.30;52.30;;;;;;5074030;28;20183;-75
2024/04/01 01:36:07;;;;;;;9.60;2.60;;;28.50;51.60;;;;;;5073560;28;20577;-72
2024/04/01 01:38:35;;;;;;;2.20;2.00;;;28.50;52.30;;;;;;5076907;28;20245;-71
2024/04/01 01:41:02;;;;;;;2.33;2.13;;;28.60;51.30;;;;;;5069515;28;20198;-72
2024/04/01 01:43:29;;;;;;;6.27;2.40;;;28.50;51.60;;;;;;5075384;28;20202;-72
2024/04/01 01:45:56;;;;;;;3.43;2.40;;;28.40;50.80;;;;;;5074077;28;20190;-72
2024/04/01 01:48:24;;;;;;;2.47;2.27;;;28.70;51.50;;;;;;5078808;28;20217;-72
2024/04/01 01:50:51;;;;;;;4.97;2.50;;;28.40;51.50;;;;;;5076730;28;20275;-70
2024/04/01 01:53:18;;;;;;;3.13;2.57;;;28.30;51.90;;;;;;5073779;28;20187;-72
2024/04/01 01:55:46;;;;;;;5.33;2.33;;;28.70;54.70;;;;;;5077589;28;20235;-73
2024/04/01 01:58:13;;;;;;;4.50;2.77;;;28.40;55.60;;;;;;5074336;28;20194;-75
2024/04/01 02:00:40;;;;;;;6.10;2.43;;;28.40;56.10;;;;;;5072800;28;20274;-74
2024/04/01 02:03:08;;;;;;;5.00;2.53;;;28.90;55.00;;;;;;5078645;28;20262;-75
2024/04/01 02:05:37;;;;;;;3.73;2.43;;;29.00;54.40;;;;;;5077524;28;20183;-74
2024/04/01 02:08:04;;;;;;;4.43;2.67;;;29.00;54.60;;;;;;5071172;28;20198;-73
2024/04/01 02:10:35;;;;;;;6.10;2.20;;;29.10;54.50;;;;;;5069922;28;20661;-74
2024/04/01 02:13:05;;;;;;;7.63;2.23;;;29.30;54.50;;;;;;5073212;28;20207;-80
2024/04/01 02:15:32;;;;;;;4.73;2.30;;;29.30;54.00;;;;;;5070837;28;20298;-73
2024/04/01 02:18:00;;;;;;;4.03;2.33;;;29.30;54.20;;;;;;5072896;28;20191;-73
2024/04/01 02:20:28;;;;;;;3.40;2.33;;;29.30;54.50;;;;;;5095092;28;20625;-72
2024/04/01 02:22:55;;;;;;;4.33;2.10;;;29.50;53.80;;;;;;5077049;28;20529;-78
2024/04/01 02:25:23;;;;;;;2.27;2.07;;;29.30;53.80;;;;;;5070959;28;20187;-73
2024/04/01 02:27:51;;;;;;;4.57;2.00;;;29.30;53.80;;;;;;5077830;28;20241;-74
2024/04/01 02:30:19;;;;;;;3.50;2.20;;;29.10;54.50;;;;;;5074049;28;20182;-73
2024/04/01 02:32:47;;;;;;;3.37;2.10;;;29.20;54.70;;;;;;5077260;28;20221;-72
2024/04/01 02:35:14;;;;;;;4.10;2.30;;;29.10;54.80;;;;;;5077168;28;20187;-70
2024/04/01 02:37:41;;;;;;;3.50;1.90;;;29.30;54.20;;;;;;5076561;28;20336;-72
2024/04/01 02:40:10;;;;;;;3.57;2.23;;;29.40;54.10;;;;;;5077046;28;20227;-72
2024/04/01 02:42:37;;;;;;;5.80;1.93;;;29.90;53.00;;;;;;5074837;28;20179;-71
2024/04/01 02:45:05;;;;;;;3.37;2.20;;;29.60;53.50;;;;;;5078959;28;20179;-71
2024/04/01 02:47:32;;;;;;;4.17;2.23;;;29.90;53.00;;;;;;5081630;28;20213;-71
2024/04/01 02:50:00;;;;;;;4.53;2.40;;;29.50;53.10;;;;;;5076946;28;20186;-74
2024/04/01 02:52:27;;;;;;;6.30;2.73;;;29.30;53.80;;;;;;5060722;28;20179;-71
2024/04/01 02:54:54;;;;;;;4.43;2.30;;;29.50;53.70;;;;;;5076982;28;20274;-70
2024/04/01 02:57:22;;;;;;;7.80;2.97;;;29.70;53.00;;;;;;5076328;28;20270;-71
2024/04/01 02:59:49;;;;;;;4.33;2.30;;;29.90;52.90;;;;;;5074805;28;20187;-76
2024/04/01 03:02:16;;;;;;;3.47;2.23;;;29.80;52.90;;;;;;5073775;28;20193;-71
2024/04/01 03:04:44;;;;;;;9.07;2.53;;;30.10;51.90;;;;;;5076168;28;20218;-70
2024/04/01 03:07:11;;;;;;;11.63;2.75;;;30.10;52.30;;;;;;5076271;28;20186;-69
2024/04/01 03:09:38;;;;;;;6.90;2.70;;;30.40;51.70;;;;;;5079771;28;20198;-71
2024/04/01 03:12:05;;;;;;;6.53;2.70;;;30.00;51.70;;;;;;5073592;28;20244;-72
2024/04/01 03:14:33;;;;;;;6.53;3.17;;;30.40;50.80;;;;;;5059051;28;20614;-70
2024/04/01 03:17:00;;;;;;;6.57;3.03;;;30.40;50.40;;;;;;5078300;28;20743;-71
2024/04/01 03:19:27;;;;;;;3.47;2.47;;;30.00;50.60;;;;;;5075953;28;20182;-72
2024/04/01 03:21:55;;;;;;;5.37;3.00;;;30.10;50.60;;;;;;5077314;28;20197;-71
2024/04/01 03:24:22;;;;;;;6.18;2.92;;;30.40;50.00;;;;;;5069541;28;20186;-70
2024/04/01 03:26:49;;;;;;;4.40;2.70;;;30.20;49.60;;;;;;5077933;28;20248;-71
2024/04/01 03:29:16;;;;;;;5.93;2.85;;;29.60;50.80;;;;;;5070339;28;20170;-74
2024/04/01 03:31:44;;;;;;;3.25;2.30;;;29.80;51.00;;;;;;5078334;28;20191;-71
2024/04/01 03:34:12;;;;;;;6.43;2.55;;;29.80;50.50;;;;;;5071338;28;20482;-71
2024/04/01 03:36:40;;;;;;;4.27;2.50;;;29.90;50.20;;;;;;5077711;28;20223;-71
2024/04/01 03:39:08;;;;;;;4.05;2.60;;;30.00;49.90;;;;;;5083639;28;20317;-70
2024/04/01 03:41:35;;;;;;;3.00;2.10;;;30.00;49.60;;;;;;5078184;28;20175;-71
2024/04/01 03:44:02;;;;;;;3.10;2.47;;;30.00;49.60;;;;;;5081308;28;20251;-71
2024/04/01 03:46:30;;;;;;;6.32;2.88;;;30.00;49.60;;;;;;5069601;28;20684;-71
2024/04/01 03:48:57;;;;;;;4.15;3.03;;;29.80;49.70;;;;;;5079570;28;20209;-71
2024/04/01 03:51:24;;;;;;;3.57;2.80;;;29.90;49.70;;;;;;5080991;28;20176;-72
2024/04/01 03:53:51;;;;;;;7.07;2.60;;;29.90;49.10;;;;;;5074599;28;20313;-70
2024/04/01 03:56:19;;;;;;;6.90;2.90;;;29.80;49.90;;;;;;5080188;28;20226;-73
2024/04/01 03:58:46;;;;;;;5.32;3.13;;;29.80;49.00;;;;;;5076421;28;20236;-69
2024/04/01 04:01:13;;;;;;;3.95;2.67;;;29.80;48.90;;;;;;5065608;28;20189;-71
2024/04/01 04:03:42;;;;;;;4.75;3.20;;;29.80;48.60;;;;;;5073752;28;20656;-71
2024/04/01 04:06:11;;;;;;;4.63;2.88;;;29.70;49.10;;;;;;5084254;28;20205;-72
2024/04/01 04:08:47;;;;;;;4.55;2.90;;;30.10;48.40;;;;;;5072444;28;20180;-70
2024/04/01 04:11:14;;;;;;;3.38;2.72;;;30.10;48.10;;;;;;5074127;28;20185;-75
2024/04/01 04:13:41;;;;;;;9.05;3.10;;;30.40;48.70;;;;;;5074602;28;20184;-74
2024/04/01 04:16:09;;;;;;;4.75;2.78;;;30.60;47.80;;;;;;5068547;28;20219;-73
2024/04/01 04:18:36;;;;;;;7.38;3.00;;;30.60;47.10;;;;;;5075290;28;20180;-72
2024/04/01 04:21:05;;;;;;;5.43;3.00;;;30.20;47.70;;;;;;5074605;28;20187;-71
2024/04/01 04:23:33;;;;;;;5.43;2.88;;;30.40;48.10;;;;;;5075392;28;20188;-71
2024/04/01 04:26:00;;;;;;;6.07;3.00;;;30.70;47.30;;;;;;5074627;28;20187;-72
2024/04/01 04:28:28;;;;;;;4.35;2.67;;;30.20;48.10;;;;;;5075196;28;20233;-70
2024/04/01 04:30:55;;;;;;;3.83;3.05;;;30.30;47.50;;;;;;5076220;28;20603;-71
2024/04/01 04:33:22;;;;;;;6.00;3.55;;;30.00;48.30;;;;;;5075347;28;20221;-72
2024/04/01 04:35:49;;;;;;;7.90;3.33;;;30.40;48.10;;;;;;5080586;28;20657;-75
2024/04/01 04:38:18;;;;;;;6.30;3.30;;;30.70;47.00;;;;;;5076030;28;20669;-73
2024/04/01 04:40:45;;;;;;;6.28;3.30;;;30.60;47.50;;;;;;5072307;28;20274;-71
2024/04/01 04:43:12;;;;;;;5.60;2.90;;;30.80;46.60;;;;;;5073393;28;20183;-71
2024/04/01 04:45:47;;;;;;;5.55;3.15;;;30.70;47.10;;;;;;5074290;28;20192;-71
2024/04/01 04:48:16;;;;;;;6.47;3.20;;;30.30;47.90;;;;;;5073039;28;20640;-71
2024/04/01 04:50:43;;;;;;;6.35;3.33;;;30.30;48.10;;;;;;5074300;28;20191;-73
2024/04/01 04:53:10;;;;;;;7.28;3.28;;;30.30;48.20;;;;;;5074785;28;20258;-71
2024/04/01 04:55:39;;;;;;;4.38;2.72;;;30.60;48.80;;;;;;5074164;28;20207;-72
2024/04/01 04:58:07;;;;;;;5.53;3.20;;;30.80;48.20;;;;;;5075963;28;20549;-73
2024/04/01 05:00:34;;;;;;;6.18;3.28;;;30.30;49.60;;;;;;5077809;28;20183;-72
2024/04/01 05:03:06;;;;;;;6.80;3.58;;;30.10;50.50;;;;;;5073149;28;20183;-70
2024/04/01 05:05:35;;;;;;;5.18;3.30;;;30.00;50.80;;;;;;5073703;28;20601;-71
2024/04/01 05:08:03;;;;;;;7.88;3.85;;;30.10;49.70;;;;;;5074293;28;20198;-70
2024/04/01 05:10:31;;;;;;;10.18;3.60;;;30.00;50.30;;;;;;5068619;28;20540;-71
2024/04/01 05:12:59;;;;;;;5.85;2.97;;;30.00;50.30;;;;;;5066335;28;20212;-74
2024/04/01 05:15:28;;;;;;;6.45;3.67;;;29.60;51.40;;;;;;5072226;28;20273;-73
2024/04/01 05:17:56;;;;;;;4.97;3.65;;;29.40;52.50;;;;;;5078677;28;20219;-73
2024/04/01 05:20:26;;;;;;;6.05;3.72;;;30.30;50.40;;;;;;5074837;28;20175;-73
2024/04/01 05:22:53;;;;;;;7.18;3.35;;;29.90;49.80;;;;;;5078477;28;20185;-72
2024/04/01 05:25:20;;;;;;;8.05;3.63;;;29.60;50.60;;;;;;5080872;28;20533;-71
2024/04/01 05:27:48;;;;;;;9.87;3.77;;;29.30;52.00;;;;;;5079128;28;20211;-70
2024/04/01 05:30:19;;;;;;;6.13;3.20;;;29.70;51.90;;;;;;5074616;28;20172;-70
2024/04/01 05:32:46;;;;;;;5.88;3.65;;;29.70;52.00;;;;;;5078004;28;20182;-71
2024/04/01 05:35:16;;;;;;;4.32;3.25;;;29.40;52.80;;;;;;5076147;28;20653;-71
2024/04/01 05:37:45;;;;;;;5.82;3.50;;;29.70;52.10;;;;;;5079981;28;20198;-72
2024/04/01 05:40:13;;;;;;;7.40;3.80;;;29.40;52.60;;;;;;5078270;28;20310;-70
2024/04/01 05:42:41;;;;;;;5.20;3.73;;;29.30;52.90;;;;;;5078801;28;20294;-73
2024/04/01 05:45:09;;;;;;;5.80;3.40;;;29.90;52.10;;;;;;5072690;28;20183;-74
2024/04/01 05:47:36;;;;;;;6.00;3.67;;;29.70;51.70;;;;;;5076891;28;20195;-72
2024/04/01 05:50:04;;;;;;;5.00;3.55;;;29.80;51.40;;;;;;5080847;28;20187;-71
2024/04/01 05:52:32;;;;;;;6.82;3.67;;;29.80;51.40;;;;;;5078923;28;20183;-72
2024/04/01 05:55:00;;;;;;;8.23;4.25;;;29.30;52.90;;;;;;5082613;28;20216;-70
2024/04/01 05:57:27;;;;;;;7.80;3.83;;;29.40;52.40;;;;;;5078270;28;20314;-70
2024/04/01 05:59:58;;;;;;;9.15;3.88;;;29.10;53.30;;;;;;5071119;28;20179;-74
2024/04/01 06:02:26;;;;;;;9.23;3.57;;;29.60;52.00;;;;;;5079433;28;20183;-71
2024/04/01 06:04:53;;;;;;;4.67;3.57;;;29.10;53.80;;;;;;5081857;28;20630;-69
2024/04/01 06:07:21;;;;;;;6.83;4.00;;;29.00;54.40;;;;;;5075828;28;20175;-75
2024/04/01 06:09:48;;;;;;;6.53;3.77;;;29.30;54.30;;;;;;5071812;28;20270;-69
2024/04/01 06:12:16;;;;;;;6.80;4.23;;;29.40;53.50;;;;;;5068203;28;20269;-70
2024/04/01 06:14:43;;;;;;;6.17;3.60;;;28.90;54.70;;;;;;5077845;28;20191;-71
2024/04/01 06:17:10;;;;;;;5.40;3.63;;;29.10;55.20;;;;;;5070578;28;20222;-70
2024/04/01 06:19:38;;;;;;;5.93;3.93;;;28.70;55.60;;;;;;5069758;28;20180;-70
2024/04/01 06:22:05;;;;;;;8.63;4.23;;;28.80;56.10;;;;;;5075630;28;20672;-72
2024/04/01 06:24:33;;;;;;;6.37;3.83;;;28.90;55.30;;;;;;5096733;28;20651;-70
2024/04/01 06:27:00;;;;;;;8.73;3.70;;;28.80;55.90;;;;;;5077498;28;20184;-75
2024/04/01 06:29:27;;;;;;;4.33;3.17;;;28.40;56.70;;;;;;5076576;28;20637;-70
2024/04/01 06:31:55;;;;;;;7.60;3.47;;;28.60;56.30;;;;;;5077286;28;20235;-73
2024/04/01 06:34:22;;;;;;;4.23;3.03;;;28.40;57.20;;;;;;5076450;28;20174;-72
2024/04/01 06:36:52;;;;;;;5.57;3.43;;;28.50;56.70;;;;;;5074389;28;20272;-72
2024/04/01 06:39:19;;;;;;;5.83;3.27;;;28.60;57.10;;;;;;5075903;28;20237;-74
2024/04/01 06:41:47;;;;;;;6.60;3.40;;;28.00;58.60;;;;;;5075267;28;20321;-72
2024/04/01 06:44:16;;;;;;;6.87;3.60;;;28.00;59.70;;;;;;5068704;28;20179;-71
2024/04/01 06:46:43;;;;;;;5.80;3.60;;;28.30;59.10;;;;;;5069149;28;20195;-73
2024/04/01 06:49:10;;;;;;;10.27;3.47;;;28.30;59.50;;;;;;5074065;28;20190;-70
2024/04/01 06:51:38;;;;;;;10.60;3.47;;;27.80;59.90;;;;;;5071696;28;20187;-73
2024/04/01 06:54:05;;;;;;;8.67;3.40;;;27.50;61.70;;;;;;5073440;28;20187;-73
2024/04/01 06:56:33;;;;;;;7.83;3.70;;;27.20;62.70;;;;;;5072418;28;20215;-72
2024/04/01 06:59:00;;;;;;;8.80;3.73;;;27.10;63.20;;;;;;5074782;28;20179;-72
2024/04/01 07:01:29;;;;;;;12.37;3.77;;;27.00;63.80;;;;;;5071905;28;20328;-71
2024/04/01 07:03:56;;;;;;;6.33;3.40;;;27.30;63.00;;;;;;5076703;28;20206;-72
2024/04/01 07:06:23;;;;;;;7.57;3.90;;;27.00;64.40;;;;;;5076234;28;20185;-71
2024/04/01 07:08:52;;;;;;;6.37;3.73;;;26.60;65.10;;;;;;5077075;28;20664;-71
2024/04/01 07:11:19;;;;;;;8.97;3.90;;;26.40;66.00;;;;;;5070173;28;20175;-73
2024/04/01 07:13:46;;;;;;;7.40;4.00;;;26.30;66.10;;;;;;5071991;28;20551;-75
2024/04/01 07:16:14;;;;;;;7.03;3.87;;;26.30;66.50;;;;;;5076645;28;20251;-73
2024/04/01 07:18:42;;;;;;;6.50;3.87;;;26.20;66.70;;;;;;5081008;28;20216;-70
2024/04/01 07:21:10;;;;;;;9.53;4.03;;;25.80;67.50;;;;;;5073262;28;20795;-72
2024/04/01 07:23:37;;;;;;;7.77;3.53;;;25.60;69.00;;;;;;5076103;28;20245;-72
2024/04/01 07:26:04;;;;;;;9.23;4.47;;;25.30;69.50;;;;;;5076013;28;20191;-70
2024/04/01 07:28:32;;;;;;;11.27;4.00;;;24.90;70.90;;;;;;5081144;28;20648;-72
2024/04/01 07:31:06;;;;;;;8.07;4.07;;;24.70;71.80;;;;;;5079888;28;20539;-71
2024/04/01 07:33:34;;;;;;;6.80;3.97;;;24.30;72.80;;;;;;5079083;28;20185;-74
2024/04/01 07:36:01;;;;;;;9.00;4.20;;;24.30;73.50;;;;;;5077347;28;20304;-72
2024/04/01 07:38:28;;;;;;;10.63;4.37;;;24.10;74.00;;;;;;5079255;28;20214;-69
2024/04/01 07:40:55;;;;;;;8.33;4.20;;;24.10;74.60;;;;;;5078525;28;20226;-71
2024/04/01 07:43:24;;;;;;;8.23;4.50;;;23.80;74.70;;;;;;5081597;28;20179;-69
2024/04/01 07:45:52;;;;;;;7.50;4.47;;;23.80;75.20;;;;;;5076905;28;20186;-72
2024/04/01 07:48:19;;;;;;;5.57;3.70;;;23.80;75.50;;;;;;5082177;28;20358;-72
2024/04/01 07:50:46;;;;;;;9.50;4.23;;;23.70;75.40;;;;;;5077013;28;20183;-72
2024/04/01 07:53:14;;;;;;;9.80;4.40;;;23.70;75.90;;;;;;5080567;28;20597;-72
2024/04/01 07:55:41;;;;;;;10.00;4.00;;;23.50;75.80;;;;;;5075222;28;20187;-73
2024/04/01 07:58:09;;;;;;;9.87;4.70;;;23.50;76.00;;;;;;5082185;28;20702;-73
2024/04/01 08:00:39;;;;;;;6.30;4.17;;;23.50;76.20;;;;;;5076361;28;20172;-69
2024/04/01 08:03:06;;;;;;;8.33;4.60;;;23.50;75.90;;;;;;5078465;28;20277;-71
2024/04/01 08:05:33;;;;;;;10.77;4.30;;;23.50;75.90;;;;;;5077276;28;20633;-71
2024/04/01 08:08:01;;;;;;;9.33;4.67;;;23.40;75.90;;;;;;5073454;28;20193;-71
2024/04/01 08:10:28;;;;;;;11.30;5.60;;;23.40;75.80;;;;;;5076466;28;20175;-72
2024/04/01 08:12:55;;;;;;;10.23;4.67;;;23.40;75.70;;;;;;5088428;28;20190;-72
2024/04/01 08:15:23;;;;;;;8.83;4.40;;;23.40;75.80;;;;;;5075640;28;20630;-70
2024/04/01 08:17:50;;;;;;;11.07;4.50;;;23.30;75.90;;;;;;5081968;28;20191;-71
2024/04/01 08:20:17;;;;;;;10.03;4.33;;;23.30;75.90;;;;;;5076816;28;20556;-72
2024/04/01 08:22:45;;;;;;;8.77;4.43;;;23.30;75.60;;;;;;5082064;28;20258;-71
2024/04/01 08:25:13;;;;;;;8.30;4.70;;;23.30;75.50;;;;;;5076596;28;20552;-71
2024/04/01 08:27:40;;;;;;;10.97;4.63;;;23.20;75.20;;;;;;5082653;28;20184;-66
2024/04/01 08:30:08;;;;;;;8.73;3.90;;;23.20;74.80;;;;;;5075217;28;20186;-73
2024/04/01 08:32:35;;;;;;;7.43;4.33;;;23.20;75.10;;;;;;5095896;28;20229;-71
2024/04/01 08:35:03;;;;;;;6.63;3.53;;;23.20;75.20;;;;;;5079113;28;20179;-71
2024/04/01 08:37:30;;;;;;;10.57;4.60;;;23.20;75.40;;;;;;5078966;28;20230;-71
2024/04/01 08:39:57;;;;;;;14.07;5.27;;;23.20;75.50;;;;;;5080788;28;20214;-72
2024/04/01 08:42:27;;;;;;;9.20;3.83;;;23.20;75.50;;;;;;5078218;28;20183;-74
2024/04/01 08:44:59;;;;;;;16.57;4.60;;;23.20;75.10;;;;;;5076173;28;20187;-74
2024/04/01 08:47:35;;;;;;;9.70;4.43;;;23.20;75.30;;;;;;5083080;28;20191;-73
2024/04/01 08:50:08;;;;;;;11.33;4.37;;;23.20;75.50;;;;;;5078069;28;20265;-74
2024/04/01 08:52:51;;;;;;;11.23;4.20;;;23.10;75.10;;;;;;5083185;28;20258;-74
2024/04/01 08:55:20;;;;;;;9.97;4.77;;;23.10;75.10;;;;;;5058616;28;20637;-73
2024/04/01 08:57:48;;;;;;;9.40;4.30;;;23.10;74.90;;;;;;5084124;28;20254;-73
2024/04/01 09:00:16;;;;;;;12.73;4.60;;;23.10;74.80;;;;;;5077056;28;20660;-74
2024/04/01 09:02:43;;;;;;;8.63;4.20;;;23.10;74.70;;;;;;5076030;28;20194;-71
2024/04/01 09:05:10;;;;;;;12.83;4.47;;;23.10;74.40;;;;;;5077461;28;20723;-70
2024/04/01 09:07:37;;;;;;;6.60;3.63;;;23.20;74.40;;;;;;5082947;28;20629;-73
2024/04/01 09:10:05;;;;;;;12.17;4.03;;;23.10;73.90;;;;;;5079280;28;20187;-73
2024/04/01 09:12:33;;;;;;;10.43;4.77;;;23.20;73.00;;;;;;5081970;28;20187;-73
2024/04/01 09:15:01;;;;;;;11.23;3.93;;;23.20;72.80;;;;;;5074036;28;20187;-73
2024/04/01 09:17:28;;;;;;;8.30;3.60;;;23.20;72.90;;;;;;5081469;28;20226;-70
2024/04/01 09:20:02;;;;;;;8.90;4.40;;;23.20;72.30;;;;;;5078441;28;20644;-75
2024/04/01 09:22:29;;;;;;;8.63;3.67;;;23.20;72.20;;;;;;5075934;28;20230;-75
2024/04/01 09:24:57;;;;;;;18.30;4.33;;;23.20;72.20;;;;;;5094208;28;20655;-72
2024/04/01 09:27:25;;;;;;;11.80;4.67;;;23.20;72.30;;;;;;5079020;28;20190;-76
2024/04/01 09:29:53;;;;;;;8.07;4.30;;;23.20;72.40;;;;;;5078730;28;20693;-73
2024/04/01 09:32:21;;;;;;;7.63;3.90;;;23.10;72.60;;;;;;5077449;28;20187;-73
2024/04/01 09:34:48;;;;;;;9.20;4.77;;;23.10;72.40;;;;;;5078233;28;20183;-74
2024/04/01 09:37:16;;;;;;;10.67;4.13;;;23.10;72.70;;;;;;5074736;28;20576;-73
2024/04/01 09:39:44;;;;;;;11.17;4.50;;;23.10;72.50;;;;;;5080772;28;20657;-72
2024/04/01 09:42:12;;;;;;;10.23;3.80;;;23.10;72.60;;;;;;5073670;28;20438;-73
2024/04/01 09:44:41;;;;;;;9.70;4.07;;;23.10;72.80;;;;;;5080321;28;20284;-73
2024/04/01 09:47:09;;;;;;;13.63;4.80;;;23.10;73.00;;;;;;5082371;28;20553;-72
2024/04/01 09:49:38;;;;;;;12.10;3.97;;;23.10;73.10;;;;;;5081305;28;20574;-72
2024/04/01 09:52:06;;;;;;;10.47;3.83;;;23.10;73.60;;;;;;5080283;28;20191;-73
2024/04/01 09:54:34;;;;;;;6.13;4.13;;;23.10;73.80;;;;;;5077497;28;20175;-70
2024/04/01 09:57:13;;;;;;;10.87;4.17;;;23.10;74.00;;;;;;5071330;28;20221;-72
2024/04/01 10:00:12;;;;;;;9.83;3.60;;;23.10;74.20;;;;;;5078050;28;20191;-73
2024/04/01 10:03:07;;;;;;;9.20;4.20;;;23.00;74.50;;;;;;5056356;28;20329;-72
2024/04/01 10:05:52;;;;;;;13.13;4.37;;;23.00;75.00;;;;;;5079245;28;20187;-73
2024/04/01 10:08:59;;;;;;;12.97;3.93;;;23.10;75.30;;;;;;5075991;28;20205;-76
2024/04/01 10:12:04;;;;;;;11.83;3.90;;;23.00;75.70;;;;;;5045451;28;20281;-76
2024/04/01 10:14:50;;;;;;;14.17;4.17;;;23.00;75.90;;;;;;5074238;28;20242;-74
2024/04/01 10:17:26;;;;;;;11.07;4.00;;;23.00;76.20;;;;;;5073167;28;20302;-76
2024/04/01 10:20:14;;;;;;;8.97;3.70;;;23.00;76.30;;;;;;5080556;28;20644;-72
2024/04/01 10:23:16;;;;;;;11.93;3.80;;;22.90;76.60;;;;;;5072534;28;20310;-72
2024/04/01 10:25:56;;;;;;;11.00;3.97;;;23.00;76.80;;;;;;5078682;28;20633;-73
2024/04/01 10:28:57;;;;;;;8.10;3.37;;;22.90;77.00;;;;;;5073080;28;20229;-77
2024/04/01 10:31:50;;;;;;;12.10;4.00;;;22.90;77.20;;;;;;5070961;28;20226;-74
2024/04/01 10:34:33;;;;;;;7.93;3.67;;;22.80;77.60;;;;;;5069873;28;20604;-73
2024/04/01 10:37:27;;;;;;;6.17;3.67;;;22.80;77.70;;;;;;5069246;28;21034;-74
2024/04/01 10:40:20;;;;;;;13.23;4.30;;;22.80;77.90;;;;;;5070390;28;20222;-71
2024/04/01 10:43:01;;;;;;;19.73;4.47;;;22.80;78.10;;;;;;5074822;28;20180;-73
2024/04/01 10:45:43;;;;;;;10.57;4.33;;;22.80;78.20;;;;;;5077428;28;20651;-73
2024/04/01 10:48:16;;;;;;;9.13;4.17;;;22.80;78.60;;;;;;5072191;28;20223;-72
2024/04/01 10:51:17;;;;;;;9.07;4.30;;;22.80;78.70;;;;;;5074306;28;20190;-71
2024/04/01 10:53:58;;;;;;;14.83;4.43;;;22.80;79.00;;;;;;5072658;28;20576;-71
2024/04/01 10:56:52;;;;;;;12.37;4.57;;;22.70;79.10;;;;;;5075473;28;20215;-73
2024/04/01 10:59:48;;;;;;;14.20;4.50;;;22.70;79.40;;;;;;5076118;28;20179;-73
2024/04/01 11:02:21;;;;;;;10.13;4.60;;;22.70;79.50;;;;;;5071629;28;20181;-73
2024/04/01 11:05:29;;;;;;;12.77;6.17;;;22.60;79.80;;;;;;5076924;28;20175;-73
2024/04/01 11:08:32;;;;;;;13.70;6.00;;;22.60;80.10;;;;;;5075549;28;20206;-72
2024/04/01 11:11:45;;;;;;;13.73;7.57;;;22.60;80.30;;;;;;5072528;28;20200;-72
2024/04/01 11:14:13;;;;;;;10.90;7.77;;;22.60;80.50;;;;;;5075801;28;20270;-72
2024/04/01 11:16:45;;;;;;;13.70;8.90;;;22.60;80.50;;;;;;5074250;28;20230;-72
2024/04/01 11:19:15;;;;;;;11.27;10.07;;;22.60;80.50;;;;;;5074826;28;20214;-74
2024/04/01 11:21:55;;;;;;;15.73;11.47;;;22.50;80.70;;;;;;5074831;28;20267;-74
2024/04/01 11:24:33;;;;;;;24.13;13.77;;;22.60;80.80;;;;;;5069206;28;20614;-72
2024/04/01 11:27:03;;;;;;;14.83;13.30;;;22.60;80.90;;;;;;5069935;28;20301;-73
2024/04/01 11:29:48;;;;;;;16.17;13.97;;;22.50;81.00;;;;;;5077071;28;20216;-73
2024/04/01 11:32:21;;;;;;;17.50;15.60;;;22.50;81.20;;;;;;5073465;28;20660;-71
2024/04/01 11:35:05;;;;;;;18.40;16.50;;;22.50;81.30;;;;;;5078140;28;20574;-71
2024/04/01 11:37:38;;;;;;;19.80;17.57;;;22.50;81.40;;;;;;5072409;28;20666;-72
2024/04/01 11:40:10;;;;;;;20.27;17.90;;;22.40;81.40;;;;;;5069568;28;20227;-72
2024/04/01 11:42:42;;;;;;;21.80;19.90;;;22.50;81.60;;;;;;5074507;28;20187;-72
2024/04/01 11:45:15;;;;;;;25.03;22.80;;;22.40;81.70;;;;;;5076606;28;20183;-72
2024/04/01 11:47:46;;;;;;;24.00;22.20;;;22.30;81.80;;;;;;5073285;28;20260;-70
2024/04/01 11:50:18;;;;;;;25.23;23.17;;;22.40;81.90;;;;;;5076138;28;20221;-71
2024/04/01 11:53:05;;;;;;;25.73;23.23;;;22.30;81.90;;;;;;5071805;28;20190;-72
2024/04/01 11:55:33;;;;;;;26.73;24.67;;;22.30;81.80;;;;;;5072026;28;20195;-71
2024/04/01 11:58:10;;;;;;;28.77;26.20;;;22.30;81.80;;;;;;5072573;28;20213;-73
2024/04/01 12:00:55;;;;;;;27.47;25.10;;;22.30;81.90;;;;;;5068496;28;20215;-73
2024/04/01 12:03:23;;;;;;;27.43;25.07;;;22.30;81.90;;;;;;5077701;28;20251;-72
2024/04/01 12:05:53;;;;;;;26.90;24.57;;;22.30;81.90;;;;;;5077996;28;20186;-72
2024/04/01 12:08:24;;;;;;;30.23;27.67;;;22.30;81.90;;;;;;5083382;28;20193;-72
2024/04/01 12:10:53;;;;;;;29.87;27.40;;;22.20;82.00;;;;;;5077496;28;20191;-71
2024/04/01 12:13:29;;;;;;;30.20;27.40;;;22.20;81.90;;;;;;5081236;28;20183;-73
2024/04/01 12:15:59;;;;;;;30.87;28.03;;;22.10;82.00;;;;;;5080968;28;20313;-72
2024/04/01 12:18:27;;;;;;;31.10;28.80;;;22.10;82.00;;;;;;5075191;28;20248;-73
2024/04/01 12:20:55;;;;;;;28.70;26.57;;;22.10;82.10;;;;;;5078214;28;20939;-72
2024/04/01 12:23:28;;;;;;;29.13;26.40;;;22.10;82.10;;;;;;5077226;28;20175;-72
2024/04/01 12:26:12;;;;;;;30.67;28.17;;;22.10;82.10;;;;;;5081127;28;20170;-72
2024/04/01 12:28:42;;;;;;;29.37;26.60;;;22.00;82.10;;;;;;5078924;28;20262;-73
2024/04/01 12:31:12;;;;;;;29.67;27.17;;;22.00;82.00;;;;;;5077813;28;20528;-72
2024/04/01 12:33:41;;;;;;;29.07;26.63;;;22.00;82.10;;;;;;5082731;28;20304;-73
2024/04/01 12:36:10;;;;;;;30.63;27.77;;;22.00;81.90;;;;;;5078179;28;20271;-72
2024/04/01 12:38:42;;;;;;;30.77;28.03;;;22.00;82.10;;;;;;5073841;28;20265;-72
2024/04/01 12:41:10;;;;;;;32.63;29.63;;;21.90;82.20;;;;;;5074914;28;20248;-73
2024/04/01 12:43:39;;;;;;;29.87;27.57;;;21.90;82.20;;;;;;5077830;28;20179;-73
2024/04/01 12:46:12;;;;;;;28.67;26.33;;;21.90;82.30;;;;;;5077079;28;20237;-71
2024/04/01 12:48:40;;;;;;;28.77;26.50;;;21.90;81.90;;;;;;5077637;28;20275;-73
2024/04/01 12:51:08;;;;;;;27.97;25.77;;;22.00;81.40;;;;;;5077410;28;20968;-74
2024/04/01 12:54:02;;;;;;;27.77;25.47;;;22.00;81.20;;;;;;5075573;28;20175;-76
2024/04/01 12:56:48;;;;;;;26.83;24.77;;;22.00;81.10;;;;;;5079361;28;20207;-73
2024/04/01 12:59:39;;;;;;;26.47;24.53;;;22.00;81.00;;;;;;5073327;28;20186;-76
2024/04/01 13:03:01;;;;;;;27.47;25.40;;;21.90;80.90;;;;;;5077794;28;20644;-72